sensor_id;sensor_type;location;lat;lon;timestamp;pressure;altitude;pressure_sealevel;temperature
34310;BMP280;61664;48.112;11.662;2023-07-28T00:00:47;94971.59;;;20.45
34310;BMP280;61664;48.112;11.662;2023-07-28T00:03:13;94961.41;;;20.38
34310;BMP280;61664;48.112;11.662;2023-07-28T00:05:40;94966.31;;;20.39
34310;BMP280;61664;48.112;11.662;2023-07-28T00:08:07;94966.13;;;20.37
34310;BMP280;61664;48.112;11.662;2023-07-28T00:10:40;94969.91;;;20.34
34310;BMP280;61664;48.112;11.662;2023-07-28T00:13:09;94951.78;;;20.21
34310;BMP280;61664;48.112;11.662;2023-07-28T00:15:36;94957.56;;;20.25
34310;BMP280;61664;48.112;11.662;2023-07-28T00:18:03;94963.00;;;20.25
34310;BMP280;61664;48.112;11.662;2023-07-28T00:20:30;94953.75;;;20.21
34310;BMP280;61664;48.112;11.662;2023-07-28T00:22:57;94954.31;;;20.19
34310;BMP280;61664;48.112;11.662;2023-07-28T00:25:24;94949.53;;;20.12
34310;BMP280;61664;48.112;11.662;2023-07-28T00:27:51;94951.53;;;20.12
34310;BMP280;61664;48.112;11.662;2023-07-28T00:30:18;94954.97;;;20.12
34310;BMP280;61664;48.112;11.662;2023-07-28T00:32:44;94956.03;;;20.09
34310;BMP280;61664;48.112;11.662;2023-07-28T00:35:11;94957.09;;;20.06
34310;BMP280;61664;48.112;11.662;2023-07-28T00:37:38;94958.19;;;20.03
34310;BMP280;61664;48.112;11.662;2023-07-28T00:40:06;94961.22;;;20.00
34310;BMP280;61664;48.112;11.662;2023-07-28T00:42:33;94967.38;;;20.00
34310;BMP280;61664;48.112;11.662;2023-07-28T00:45:03;94967.19;;;19.98
34310;BMP280;61664;48.112;11.662;2023-07-28T00:47:30;94955.75;;;19.92
34310;BMP280;61664;48.112;11.662;2023-07-28T00:49:57;94963.16;;;19.92
34310;BMP280;61664;48.112;11.662;2023-07-28T00:52:27;94963.00;;;19.90
34310;BMP280;61664;48.112;11.662;2023-07-28T00:54:54;94946.84;;;19.84
34310;BMP280;61664;48.112;11.662;2023-07-28T00:57:21;94935.75;;;19.74
34310;BMP280;61664;48.112;11.662;2023-07-28T00:59:48;94963.72;;;19.90
34310;BMP280;61664;48.112;11.662;2023-07-28T01:02:18;94955.03;;;19.92
34310;BMP280;61664;48.112;11.662;2023-07-28T01:04:47;94957.75;;;19.92
34310;BMP280;61664;48.112;11.662;2023-07-28T01:07:37;94940.56;;;19.89
34310;BMP280;61664;48.112;11.662;2023-07-28T01:10:25;94938.19;;;19.85
34310;BMP280;61664;48.112;11.662;2023-07-28T01:12:53;94954.88;;;19.97
34310;BMP280;61664;48.112;11.662;2023-07-28T01:15:20;94957.59;;;19.97
34310;BMP280;61664;48.112;11.662;2023-07-28T01:17:47;94954.34;;;19.99
34310;BMP280;61664;48.112;11.662;2023-07-28T01:20:14;94953.63;;;19.98
34310;BMP280;61664;48.112;11.662;2023-07-28T01:23:05;94955.41;;;19.96
34310;BMP280;61664;48.112;11.662;2023-07-28T01:26:11;94954.69;;;19.95
34310;BMP280;61664;48.112;11.662;2023-07-28T01:28:40;94946.91;;;19.99
34310;BMP280;61664;48.112;11.662;2023-07-28T01:31:08;94935.66;;;19.87
34310;BMP280;61664;48.112;11.662;2023-07-28T01:33:36;94951.06;;;19.93
34310;BMP280;61664;48.112;11.662;2023-07-28T01:36:03;94949.25;;;19.95
34310;BMP280;61664;48.112;11.662;2023-07-28T01:38:30;94948.56;;;19.95
34310;BMP280;61664;48.112;11.662;2023-07-28T01:40:57;94948.16;;;19.91
34310;BMP280;61664;48.112;11.662;2023-07-28T01:43:24;94948.69;;;19.89
34310;BMP280;61664;48.112;11.662;2023-07-28T01:45:51;94939.97;;;19.83
34310;BMP280;61664;48.112;11.662;2023-07-28T01:48:18;94949.56;;;19.84
34310;BMP280;61664;48.112;11.662;2023-07-28T01:50:45;94954.97;;;19.84
34310;BMP280;61664;48.112;11.662;2023-07-28T01:53:12;94950.66;;;19.81
34310;BMP280;61664;48.112;11.662;2023-07-28T01:55:39;94944.63;;;19.75
34310;BMP280;61664;48.112;11.662;2023-07-28T01:58:06;94947.31;;;19.75
34310;BMP280;61664;48.112;11.662;2023-07-28T02:00:33;94942.03;;;19.69
34310;BMP280;61664;48.112;11.662;2023-07-28T02:03:00;94943.63;;;19.65
34310;BMP280;61664;48.112;11.662;2023-07-28T02:05:29;94948.72;;;19.68
34310;BMP280;61664;48.112;11.662;2023-07-28T02:07:57;94938.38;;;19.59
34310;BMP280;61664;48.112;11.662;2023-07-28T02:10:25;94951.03;;;19.64
34310;BMP280;61664;48.112;11.662;2023-07-28T02:12:52;94947.63;;;19.64
34310;BMP280;61664;48.112;11.662;2023-07-28T02:15:19;94956.81;;;19.61
34310;BMP280;61664;48.112;11.662;2023-07-28T02:17:46;94952.44;;;19.58
34310;BMP280;61664;48.112;11.662;2023-07-28T02:20:13;94955.66;;;19.56
34310;BMP280;61664;48.112;11.662;2023-07-28T02:22:43;94941.47;;;19.42
34310;BMP280;61664;48.112;11.662;2023-07-28T02:25:10;94954.56;;;19.52
34310;BMP280;61664;48.112;11.662;2023-07-28T02:27:40;94959.97;;;19.52
34310;BMP280;61664;48.112;11.662;2023-07-28T02:30:07;94950.72;;;19.47
34310;BMP280;61664;48.112;11.662;2023-07-28T02:32:36;94950.19;;;19.48
34310;BMP280;61664;48.112;11.662;2023-07-28T02:35:04;94948.34;;;19.43
34310;BMP280;61664;48.112;11.662;2023-07-28T02:37:31;94953.63;;;19.49
34310;BMP280;61664;48.112;11.662;2023-07-28T02:39:58;94942.94;;;19.43
34310;BMP280;61664;48.112;11.662;2023-07-28T02:42:25;94950.19;;;19.48
34310;BMP280;61664;48.112;11.662;2023-07-28T02:44:52;94945.28;;;19.47
34310;BMP280;61664;48.112;11.662;2023-07-28T02:47:19;94946.56;;;19.46
34310;BMP280;61664;48.112;11.662;2023-07-28T02:49:46;94937.97;;;19.34
34310;BMP280;61664;48.112;11.662;2023-07-28T02:52:13;94942.53;;;19.39
34310;BMP280;61664;48.112;11.662;2023-07-28T02:54:40;94956.06;;;19.39
34310;BMP280;61664;48.112;11.662;2023-07-28T02:57:07;94949.53;;;19.35
34310;BMP280;61664;48.112;11.662;2023-07-28T02:59:34;94952.97;;;19.35
34310;BMP280;61664;48.112;11.662;2023-07-28T03:02:01;94944.84;;;19.35
34310;BMP280;61664;48.112;11.662;2023-07-28T03:04:28;94933.41;;;19.29
34310;BMP280;61664;48.112;11.662;2023-07-28T03:06:55;94924.72;;;19.23
34310;BMP280;61664;48.112;11.662;2023-07-28T03:09:23;94934.69;;;19.28
34310;BMP280;61664;48.112;11.662;2023-07-28T03:11:50;94946.09;;;19.34
34310;BMP280;61664;48.112;11.662;2023-07-28T03:14:17;94942.66;;;19.34
34310;BMP280;61664;48.112;11.662;2023-07-28T03:16:44;94942.50;;;19.32
34310;BMP280;61664;48.112;11.662;2023-07-28T03:19:11;94948.81;;;19.34
34310;BMP280;61664;48.112;11.662;2023-07-28T03:21:37;94952.25;;;19.35
34310;BMP280;61664;48.112;11.662;2023-07-28T03:24:06;94950.47;;;19.37
34310;BMP280;61664;48.112;11.662;2023-07-28T03:26:33;94956.59;;;19.38
34310;BMP280;61664;48.112;11.662;2023-07-28T03:29:00;94944.34;;;19.37
34310;BMP280;61664;48.112;11.662;2023-07-28T03:31:27;94946.72;;;19.40
34310;BMP280;61664;48.112;11.662;2023-07-28T03:33:54;94953.19;;;19.37
34310;BMP280;61664;48.112;11.662;2023-07-28T03:36:21;94946.50;;;19.38
34310;BMP280;61664;48.112;11.662;2023-07-28T03:38:48;94943.41;;;19.34
34310;BMP280;61664;48.112;11.662;2023-07-28T03:41:15;94938.81;;;19.29
34310;BMP280;61664;48.112;11.662;2023-07-28T03:43:42;94954.13;;;19.40
34310;BMP280;61664;48.112;11.662;2023-07-28T03:46:09;94931.09;;;19.33
34310;BMP280;61664;48.112;11.662;2023-07-28T03:48:36;94937.88;;;19.40
34310;BMP280;61664;48.112;11.662;2023-07-28T03:51:04;94950.91;;;19.49
34310;BMP280;61664;48.112;11.662;2023-07-28T03:53:30;94956.41;;;19.57
34310;BMP280;61664;48.112;11.662;2023-07-28T03:55:57;94941.94;;;19.54
34310;BMP280;61664;48.112;11.662;2023-07-28T03:58:25;94945.28;;;19.68
34310;BMP280;61664;48.112;11.662;2023-07-28T04:00:53;94952.56;;;19.73
34310;BMP280;61664;48.112;11.662;2023-07-28T04:03:20;94958.00;;;19.73
34310;BMP280;61664;48.112;11.662;2023-07-28T04:05:48;94948.53;;;19.66
34310;BMP280;61664;48.112;11.662;2023-07-28T04:08:15;94947.06;;;19.65
34310;BMP280;61664;48.112;11.662;2023-07-28T04:10:41;94942.38;;;19.66
34310;BMP280;61664;48.112;11.662;2023-07-28T04:13:08;94943.09;;;19.66
34310;BMP280;61664;48.112;11.662;2023-07-28T04:15:36;94931.19;;;19.69
34310;BMP280;61664;48.112;11.662;2023-07-28T04:18:03;94936.59;;;19.69
34310;BMP280;61664;48.112;11.662;2023-07-28T04:20:30;94950.78;;;19.75
34310;BMP280;61664;48.112;11.662;2023-07-28T04:22:56;94951.50;;;19.76
34310;BMP280;61664;48.112;11.662;2023-07-28T04:25:23;94959.16;;;19.85
34310;BMP280;61664;48.112;11.662;2023-07-28T04:27:50;94952.69;;;19.96
34310;BMP280;61664;48.112;11.662;2023-07-28T04:30:17;94952.22;;;20.05
34310;BMP280;61664;48.112;11.662;2023-07-28T04:32:44;94951.72;;;20.14
34310;BMP280;61664;48.112;11.662;2023-07-28T04:35:12;94933.59;;;20.09
34310;BMP280;61664;48.112;11.662;2023-07-28T04:37:39;94956.13;;;20.24
34310;BMP280;61664;48.112;11.662;2023-07-28T04:40:07;94950.16;;;20.26
34310;BMP280;61664;48.112;11.662;2023-07-28T04:42:35;94938.22;;;20.21
34310;BMP280;61664;48.112;11.662;2023-07-28T04:45:04;94952.56;;;20.37
34310;BMP280;61664;48.112;11.662;2023-07-28T04:47:31;94956.22;;;20.40
34310;BMP280;61664;48.112;11.662;2023-07-28T04:49:58;94952.22;;;20.41
34310;BMP280;61664;48.112;11.662;2023-07-28T04:52:25;94950.94;;;20.42
34310;BMP280;61664;48.112;11.662;2023-07-28T04:54:52;94954.03;;;20.46
34310;BMP280;61664;48.112;11.662;2023-07-28T04:57:19;94967.09;;;20.55
34310;BMP280;61664;48.112;11.662;2023-07-28T04:59:46;94956.59;;;20.59
34310;BMP280;61664;48.112;11.662;2023-07-28T05:02:13;94977.31;;;20.77
34310;BMP280;61664;48.112;11.662;2023-07-28T05:04:40;94971.16;;;20.77
34310;BMP280;61664;48.112;11.662;2023-07-28T05:07:07;94988.19;;;20.85
34310;BMP280;61664;48.112;11.662;2023-07-28T05:09:34;94983.50;;;20.85
34310;BMP280;61664;48.112;11.662;2023-07-28T05:12:00;94979.53;;;20.86
34310;BMP280;61664;48.112;11.662;2023-07-28T05:14:27;94971.53;;;20.88
34310;BMP280;61664;48.112;11.662;2023-07-28T05:16:54;94969.19;;;20.85
34310;BMP280;61664;48.112;11.662;2023-07-28T05:19:21;94968.47;;;20.92
34310;BMP280;61664;48.112;11.662;2023-07-28T05:21:49;94988.81;;;21.14
34310;BMP280;61664;48.112;11.662;2023-07-28T05:24:15;94986.44;;;21.18
34310;BMP280;61664;48.112;11.662;2023-07-28T05:26:42;94978.31;;;21.18
34310;BMP280;61664;48.112;11.662;2023-07-28T05:29:09;94978.50;;;21.27
34310;BMP280;61664;48.112;11.662;2023-07-28T05:31:36;94966.91;;;21.27
34310;BMP280;61664;48.112;11.662;2023-07-28T05:34:04;94980.34;;;21.40
34310;BMP280;61664;48.112;11.662;2023-07-28T05:36:31;94986.13;;;21.36
34310;BMP280;61664;48.112;11.662;2023-07-28T05:38:58;94994.66;;;21.48
34310;BMP280;61664;48.112;11.662;2023-07-28T05:41:25;94993.38;;;21.49
34310;BMP280;61664;48.112;11.662;2023-07-28T05:43:53;94976.53;;;21.43
34310;BMP280;61664;48.112;11.662;2023-07-28T05:46:20;94989.94;;;21.56
34310;BMP280;61664;48.112;11.662;2023-07-28T05:48:47;94999.16;;;21.61
34310;BMP280;61664;48.112;11.662;2023-07-28T05:51:14;95004.06;;;21.70
34310;BMP280;61664;48.112;11.662;2023-07-28T05:53:41;94991.22;;;21.70
34310;BMP280;61664;48.112;11.662;2023-07-28T05:56:08;94998.97;;;21.81
34310;BMP280;61664;48.112;11.662;2023-07-28T05:58:35;95001.88;;;21.91
34310;BMP280;61664;48.112;11.662;2023-07-28T06:01:02;95003.84;;;21.98
34310;BMP280;61664;48.112;11.662;2023-07-28T06:03:29;95003.50;;;22.02
34310;BMP280;61664;48.112;11.662;2023-07-28T06:05:57;95013.78;;;22.18
34310;BMP280;61664;48.112;11.662;2023-07-28T06:08:24;95012.69;;;22.29
34310;BMP280;61664;48.112;11.662;2023-07-28T06:10:51;95022.25;;;22.38
34310;BMP280;61664;48.112;11.662;2023-07-28T06:13:17;95030.56;;;22.47
34310;BMP280;61664;48.112;11.662;2023-07-28T06:15:44;95026.81;;;22.43
34310;BMP280;61664;48.112;11.662;2023-07-28T06:18:11;95022.25;;;22.45
34310;BMP280;61664;48.112;11.662;2023-07-28T06:20:45;95029.50;;;22.50
34310;BMP280;61664;48.112;11.662;2023-07-28T06:23:12;95032.19;;;22.58
34310;BMP280;61664;48.112;11.662;2023-07-28T06:25:39;95035.44;;;22.56
34310;BMP280;61664;48.112;11.662;2023-07-28T06:28:11;95034.94;;;22.50
34310;BMP280;61664;48.112;11.662;2023-07-28T06:30:39;95032.59;;;22.47
34310;BMP280;61664;48.112;11.662;2023-07-28T06:33:07;95053.06;;;22.48
34310;BMP280;61664;48.112;11.662;2023-07-28T06:35:34;95046.91;;;22.47
34310;BMP280;61664;48.112;11.662;2023-07-28T06:38:02;95055.22;;;22.57
34310;BMP280;61664;48.112;11.662;2023-07-28T06:40:29;95050.16;;;22.61
34310;BMP280;61664;48.112;11.662;2023-07-28T06:42:56;95051.00;;;22.71
34310;BMP280;61664;48.112;11.662;2023-07-28T06:45:23;95058.78;;;22.82
34310;BMP280;61664;48.112;11.662;2023-07-28T06:47:50;95068.19;;;22.89
34310;BMP280;61664;48.112;11.662;2023-07-28T06:50:18;95064.88;;;22.98
34310;BMP280;61664;48.112;11.662;2023-07-28T06:52:45;95066.09;;;23.04
34310;BMP280;61664;48.112;11.662;2023-07-28T06:55:13;95069.69;;;23.15
34310;BMP280;61664;48.112;11.662;2023-07-28T06:57:40;95060.41;;;23.18
34310;BMP280;61664;48.112;11.662;2023-07-28T07:00:08;95069.06;;;23.31
34310;BMP280;61664;48.112;11.662;2023-07-28T07:02:38;95077.72;;;23.37
34310;BMP280;61664;48.112;11.662;2023-07-28T07:05:06;95070.09;;;23.36
34310;BMP280;61664;48.112;11.662;2023-07-28T07:07:33;95073.38;;;23.34
34310;BMP280;61664;48.112;11.662;2023-07-28T07:10:00;95067.25;;;23.26
34310;BMP280;61664;48.112;11.662;2023-07-28T07:12:27;95065.19;;;23.34
34310;BMP280;61664;48.112;11.662;2023-07-28T07:14:54;95062.44;;;23.42
34310;BMP280;61664;48.112;11.662;2023-07-28T07:17:21;95065.44;;;23.54
34310;BMP280;61664;48.112;11.662;2023-07-28T07:19:48;95064.59;;;23.68
34310;BMP280;61664;48.112;11.662;2023-07-28T07:22:15;95073.91;;;23.90
34310;BMP280;61664;48.112;11.662;2023-07-28T07:24:42;95072.84;;;24.03
34310;BMP280;61664;48.112;11.662;2023-07-28T07:27:09;95067.00;;;24.06
34310;BMP280;61664;48.112;11.662;2023-07-28T07:29:39;95067.91;;;24.09
34310;BMP280;61664;48.112;11.662;2023-07-28T07:32:07;95059.00;;;24.08
34310;BMP280;61664;48.112;11.662;2023-07-28T07:34:34;95066.38;;;24.15
34310;BMP280;61664;48.112;11.662;2023-07-28T07:37:04;95064.31;;;24.23
34310;BMP280;61664;48.112;11.662;2023-07-28T07:39:31;95069.84;;;24.33
34310;BMP280;61664;48.112;11.662;2023-07-28T07:41:59;95071.97;;;24.35
34310;BMP280;61664;48.112;11.662;2023-07-28T07:44:27;95068.31;;;24.40
34310;BMP280;61664;48.112;11.662;2023-07-28T07:46:55;95065.16;;;24.43
34310;BMP280;61664;48.112;11.662;2023-07-28T07:49:22;95071.84;;;24.50
34310;BMP280;61664;48.112;11.662;2023-07-28T07:51:50;95075.53;;;24.62
34310;BMP280;61664;48.112;11.662;2023-07-28T07:54:17;95069.78;;;24.85
34310;BMP280;61664;48.112;11.662;2023-07-28T07:56:45;95066.91;;;25.09
34310;BMP280;61664;48.112;11.662;2023-07-28T07:59:13;95083.41;;;25.29
34310;BMP280;61664;48.112;11.662;2023-07-28T08:01:40;95061.69;;;25.31
34310;BMP280;61664;48.112;11.662;2023-07-28T08:04:08;95055.53;;;25.40
34310;BMP280;61664;48.112;11.662;2023-07-28T08:06:35;95072.19;;;25.71
34310;BMP280;61664;48.112;11.662;2023-07-28T08:09:02;95064.84;;;25.83
34310;BMP280;61664;48.112;11.662;2023-07-28T08:11:29;95071.66;;;25.91
34310;BMP280;61664;48.112;11.662;2023-07-28T08:13:55;95065.34;;;25.98
34310;BMP280;61664;48.112;11.662;2023-07-28T08:16:22;95056.69;;;26.02
34310;BMP280;61664;48.112;11.662;2023-07-28T08:18:50;95070.38;;;26.12
34310;BMP280;61664;48.112;11.662;2023-07-28T08:21:17;95073.81;;;26.12
34310;BMP280;61664;48.112;11.662;2023-07-28T08:23:43;95057.53;;;26.05
34310;BMP280;61664;48.112;11.662;2023-07-28T08:26:10;95056.41;;;26.08
34310;BMP280;61664;48.112;11.662;2023-07-28T08:28:37;95065.91;;;26.26
34310;BMP280;61664;48.112;11.662;2023-07-28T08:31:04;95065.31;;;26.37
34310;BMP280;61664;48.112;11.662;2023-07-28T08:33:31;95069.34;;;26.45
34310;BMP280;61664;48.112;11.662;2023-07-28T08:35:58;95071.50;;;26.76
34310;BMP280;61664;48.112;11.662;2023-07-28T08:38:29;95072.13;;;27.15
34310;BMP280;61664;48.112;11.662;2023-07-28T08:40:56;95066.06;;;27.47
34310;BMP280;61664;48.112;11.662;2023-07-28T08:43:25;95074.41;;;27.80
34310;BMP280;61664;48.112;11.662;2023-07-28T08:45:54;95064.53;;;28.08
34310;BMP280;61664;48.112;11.662;2023-07-28T08:48:22;95065.59;;;28.68
34310;BMP280;61664;48.112;11.662;2023-07-28T08:50:49;95052.22;;;29.56
34310;BMP280;61664;48.112;11.662;2023-07-28T08:53:17;95071.16;;;30.24
34310;BMP280;61664;48.112;11.662;2023-07-28T08:55:44;95084.63;;;30.82
34310;BMP280;61664;48.112;11.662;2023-07-28T08:58:30;95066.22;;;31.82
34310;BMP280;61664;48.112;11.662;2023-07-28T09:00:57;95068.91;;;33.17
34310;BMP280;61664;48.112;11.662;2023-07-28T09:03:27;95069.66;;;33.68
34310;BMP280;61664;48.112;11.662;2023-07-28T09:06:02;95068.31;;;33.87
34310;BMP280;61664;48.112;11.662;2023-07-28T09:08:32;95070.56;;;33.39
34310;BMP280;61664;48.112;11.662;2023-07-28T09:11:03;95074.88;;;32.64
34310;BMP280;61664;48.112;11.662;2023-07-28T09:13:40;95071.50;;;31.91
34310;BMP280;61664;48.112;11.662;2023-07-28T09:16:19;95083.97;;;31.36
34310;BMP280;61664;48.112;11.662;2023-07-28T09:18:46;95076.25;;;30.93
34310;BMP280;61664;48.112;11.662;2023-07-28T09:21:18;95104.84;;;30.47
34310;BMP280;61664;48.112;11.662;2023-07-28T09:23:48;95082.28;;;30.00
34310;BMP280;61664;48.112;11.662;2023-07-28T09:26:16;95094.66;;;29.64
34310;BMP280;61664;48.112;11.662;2023-07-28T09:28:43;95096.13;;;29.31
34310;BMP280;61664;48.112;11.662;2023-07-28T09:31:10;95082.59;;;29.00
34310;BMP280;61664;48.112;11.662;2023-07-28T09:33:38;95082.06;;;28.68
34310;BMP280;61664;48.112;11.662;2023-07-28T09:36:15;95093.56;;;28.44
34310;BMP280;61664;48.112;11.662;2023-07-28T09:38:50;95089.81;;;28.28
34310;BMP280;61664;48.112;11.662;2023-07-28T09:41:18;95081.13;;;28.10
34310;BMP280;61664;48.112;11.662;2023-07-28T09:43:47;95081.41;;;27.93
34310;BMP280;61664;48.112;11.662;2023-07-28T09:46:19;95094.66;;;27.96
34310;BMP280;61664;48.112;11.662;2023-07-28T09:48:51;95093.94;;;27.96
34310;BMP280;61664;48.112;11.662;2023-07-28T09:51:22;95097.88;;;27.93
34310;BMP280;61664;48.112;11.662;2023-07-28T09:53:58;95096.16;;;27.88
34310;BMP280;61664;48.112;11.662;2023-07-28T09:56:28;95096.63;;;27.84
34310;BMP280;61664;48.112;11.662;2023-07-28T09:59:02;95086.09;;;27.81
34310;BMP280;61664;48.112;11.662;2023-07-28T10:01:32;95086.47;;;27.87
34310;BMP280;61664;48.112;11.662;2023-07-28T10:04:00;95084.25;;;27.95
34310;BMP280;61664;48.112;11.662;2023-07-28T10:06:28;95087.59;;;27.93
34310;BMP280;61664;48.112;11.662;2023-07-28T10:08:56;95078.03;;;27.94
34310;BMP280;61664;48.112;11.662;2023-07-28T10:11:24;95081.72;;;28.08
34310;BMP280;61664;48.112;11.662;2023-07-28T10:13:54;95079.31;;;28.36
34310;BMP280;61664;48.112;11.662;2023-07-28T10:16:36;95075.00;;;28.65
34310;BMP280;61664;48.112;11.662;2023-07-28T10:19:04;95091.66;;;28.91
34310;BMP280;61664;48.112;11.662;2023-07-28T10:21:31;95079.97;;;29.02
34310;BMP280;61664;48.112;11.662;2023-07-28T10:24:05;95080.09;;;29.04
34310;BMP280;61664;48.112;11.662;2023-07-28T10:26:41;95076.50;;;29.01
34310;BMP280;61664;48.112;11.662;2023-07-28T10:29:14;95086.16;;;28.91
34310;BMP280;61664;48.112;11.662;2023-07-28T10:31:55;95078.59;;;28.68
34310;BMP280;61664;48.112;11.662;2023-07-28T10:34:25;95084.31;;;28.60
34310;BMP280;61664;48.112;11.662;2023-07-28T10:36:59;95096.63;;;28.59
34310;BMP280;61664;48.112;11.662;2023-07-28T10:39:27;95084.28;;;28.49
34310;BMP280;61664;48.112;11.662;2023-07-28T10:42:04;95100.47;;;28.33
34310;BMP280;61664;48.112;11.662;2023-07-28T10:44:32;95096.63;;;28.27
34310;BMP280;61664;48.112;11.662;2023-07-28T10:46:59;95095.63;;;28.22
34310;BMP280;61664;48.112;11.662;2023-07-28T10:49:27;95101.19;;;28.12
34310;BMP280;61664;48.112;11.662;2023-07-28T10:51:54;95106.22;;;28.16
34310;BMP280;61664;48.112;11.662;2023-07-28T10:54:21;95101.59;;;27.97
34310;BMP280;61664;48.112;11.662;2023-07-28T10:56:49;95110.56;;;27.98
34310;BMP280;61664;48.112;11.662;2023-07-28T10:59:16;95103.22;;;27.91
34310;BMP280;61664;48.112;11.662;2023-07-28T11:01:44;95112.72;;;27.99
34310;BMP280;61664;48.112;11.662;2023-07-28T11:04:19;95120.63;;;28.05
34310;BMP280;61664;48.112;11.662;2023-07-28T11:06:49;95104.72;;;28.03
34310;BMP280;61664;48.112;11.662;2023-07-28T11:09:19;95104.59;;;28.01
34310;BMP280;61664;48.112;11.662;2023-07-28T11:11:49;95116.72;;;28.08
34310;BMP280;61664;48.112;11.662;2023-07-28T11:14:19;95108.47;;;28.08
34310;BMP280;61664;48.112;11.662;2023-07-28T11:16:47;95100.88;;;28.18
34310;BMP280;61664;48.112;11.662;2023-07-28T11:19:16;95105.19;;;28.21
34310;BMP280;61664;48.112;11.662;2023-07-28T11:21:46;95111.47;;;28.33
34310;BMP280;61664;48.112;11.662;2023-07-28T11:24:20;95104.38;;;28.51
34310;BMP280;61664;48.112;11.662;2023-07-28T11:26:48;95104.28;;;28.73
34310;BMP280;61664;48.112;11.662;2023-07-28T11:29:18;95104.44;;;28.86
34310;BMP280;61664;48.112;11.662;2023-07-28T11:31:45;95115.22;;;28.94
34310;BMP280;61664;48.112;11.662;2023-07-28T11:34:15;95093.09;;;28.80
34310;BMP280;61664;48.112;11.662;2023-07-28T11:36:43;95103.97;;;28.78
34310;BMP280;61664;48.112;11.662;2023-07-28T11:39:10;95101.81;;;28.77
34310;BMP280;61664;48.112;11.662;2023-07-28T11:41:38;95101.22;;;28.78
34310;BMP280;61664;48.112;11.662;2023-07-28T11:44:06;95102.66;;;28.79
34310;BMP280;61664;48.112;11.662;2023-07-28T11:46:41;95099.53;;;28.85
34310;BMP280;61664;48.112;11.662;2023-07-28T11:49:20;95101.72;;;28.98
34310;BMP280;61664;48.112;11.662;2023-07-28T11:51:53;95097.78;;;29.24
34310;BMP280;61664;48.112;11.662;2023-07-28T11:54:23;95102.81;;;29.51
34310;BMP280;61664;48.112;11.662;2023-07-28T11:56:54;95114.19;;;29.69
34310;BMP280;61664;48.112;11.662;2023-07-28T11:59:21;95100.88;;;29.65
34310;BMP280;61664;48.112;11.662;2023-07-28T12:01:57;95097.56;;;29.67
34310;BMP280;61664;48.112;11.662;2023-07-28T12:04:44;95076.97;;;29.56
34310;BMP280;61664;48.112;11.662;2023-07-28T12:07:17;95096.84;;;29.54
34310;BMP280;61664;48.112;11.662;2023-07-28T12:12:46;95096.22;;;29.44
34310;BMP280;61664;48.112;11.662;2023-07-28T12:15:28;95094.94;;;29.57
34310;BMP280;61664;48.112;11.662;2023-07-28T12:18:16;95098.50;;;29.71
34310;BMP280;61664;48.112;11.662;2023-07-28T12:20:51;95091.31;;;29.78
34310;BMP280;61664;48.112;11.662;2023-07-28T12:23:22;95092.03;;;29.78
34310;BMP280;61664;48.112;11.662;2023-07-28T12:25:52;95096.66;;;29.87
34310;BMP280;61664;48.112;11.662;2023-07-28T12:28:22;95092.09;;;29.92
34310;BMP280;61664;48.112;11.662;2023-07-28T12:30:49;95085.88;;;29.91
34310;BMP280;61664;48.112;11.662;2023-07-28T12:33:19;95086.44;;;30.01
34310;BMP280;61664;48.112;11.662;2023-07-28T12:35:50;95089.00;;;30.23
34310;BMP280;61664;48.112;11.662;2023-07-28T12:38:18;95066.41;;;30.13
34310;BMP280;61664;48.112;11.662;2023-07-28T12:40:48;95085.53;;;30.22
34310;BMP280;61664;48.112;11.662;2023-07-28T12:43:18;95077.22;;;30.08
34310;BMP280;61664;48.112;11.662;2023-07-28T12:45:48;95092.16;;;30.05
34310;BMP280;61664;48.112;11.662;2023-07-28T12:48:18;95079.91;;;29.83
34310;BMP280;61664;48.112;11.662;2023-07-28T12:50:47;95085.34;;;29.70
34310;BMP280;61664;48.112;11.662;2023-07-28T12:53:14;95092.16;;;29.69
34310;BMP280;61664;48.112;11.662;2023-07-28T12:55:48;95084.97;;;29.75
34310;BMP280;61664;48.112;11.662;2023-07-28T12:58:18;95091.91;;;29.76
34310;BMP280;61664;48.112;11.662;2023-07-28T13:00:48;95090.22;;;29.83
34310;BMP280;61664;48.112;11.662;2023-07-28T13:03:18;95089.03;;;29.86
34310;BMP280;61664;48.112;11.662;2023-07-28T13:05:45;95091.78;;;29.86
34310;BMP280;61664;48.112;11.662;2023-07-28T13:08:15;95087.34;;;29.81
34310;BMP280;61664;48.112;11.662;2023-07-28T13:10:41;95074.81;;;29.78
34310;BMP280;61664;48.112;11.662;2023-07-28T13:13:11;95080.31;;;29.78
34310;BMP280;61664;48.112;11.662;2023-07-28T13:15:40;95085.53;;;29.85
34310;BMP280;61664;48.112;11.662;2023-07-28T13:18:07;95071.19;;;29.87
34310;BMP280;61664;48.112;11.662;2023-07-28T13:20:34;95084.66;;;29.94
34310;BMP280;61664;48.112;11.662;2023-07-28T13:23:01;95088.13;;;30.06
34310;BMP280;61664;48.112;11.662;2023-07-28T13:25:28;95105.44;;;30.21
34310;BMP280;61664;48.112;11.662;2023-07-28T13:27:55;95094.78;;;30.15
34310;BMP280;61664;48.112;11.662;2023-07-28T13:30:22;95105.59;;;30.11
34310;BMP280;61664;48.112;11.662;2023-07-28T13:35:16;95099.75;;;29.93
34310;BMP280;61664;48.112;11.662;2023-07-28T13:37:43;95105.38;;;29.95
34310;BMP280;61664;48.112;11.662;2023-07-28T13:40:10;95107.78;;;30.01
34310;BMP280;61664;48.112;11.662;2023-07-28T13:42:39;95105.97;;;29.94
34310;BMP280;61664;48.112;11.662;2023-07-28T13:45:08;95109.84;;;29.89
34310;BMP280;61664;48.112;11.662;2023-07-28T13:47:35;95115.34;;;29.89
34310;BMP280;61664;48.112;11.662;2023-07-28T13:50:03;95116.91;;;29.92
34310;BMP280;61664;48.112;11.662;2023-07-28T13:52:30;95109.59;;;29.96
34310;BMP280;61664;48.112;11.662;2023-07-28T13:54:57;95105.66;;;29.88
34310;BMP280;61664;48.112;11.662;2023-07-28T13:57:27;95122.16;;;29.88
34310;BMP280;61664;48.112;11.662;2023-07-28T13:59:54;95113.34;;;29.78
34310;BMP280;61664;48.112;11.662;2023-07-28T14:02:21;95126.50;;;29.68
34310;BMP280;61664;48.112;11.662;2023-07-28T14:04:48;95126.06;;;29.48
34310;BMP280;61664;48.112;11.662;2023-07-28T14:07:15;95128.81;;;29.36
34310;BMP280;61664;48.112;11.662;2023-07-28T14:09:42;95116.69;;;29.18